Time;durP1;ratioP1;P1;durP2;ratioP2;P2;SDS_P1;SDS_P2;PMS_P1;PMS_P2;Temp;Humidity;BMP_temperature;BMP_pressure;BME280_temperature;BME280_humidity;BME280_pressure;Samples;Min_cycle;Max_cycle;Signal;HPM_P1;HPM_P2
2022/03/12 00:02:07;;;;;;;8.73;4.05;;;;;;;3.32;43.08;96555.00;5046672;28;20044;-71
2022/03/12 00:04:33;;;;;;;7.93;3.83;;;;;;;3.30;42.83;96560.47;5048761;28;20350;-70
2022/03/12 00:06:58;;;;;;;18.15;9.10;;;;;;;3.24;43.47;96563.09;5046483;28;20350;-73
2022/03/12 00:09:24;;;;;;;9.88;5.22;;;;;;;3.18;43.52;96555.97;5048066;28;20064;-72
2022/03/12 00:11:56;;;;;;;12.02;5.85;;;;;;;3.11;44.12;96553.31;5049573;28;20052;-71
2022/03/12 00:14:23;;;;;;;9.75;5.47;;;;;;;3.09;43.60;96560.63;5049456;28;20083;-71
2022/03/12 00:16:51;;;;;;;8.18;4.85;;;;;;;3.08;43.68;96572.22;5049451;28;20490;-74
2022/03/12 00:19:20;;;;;;;8.23;4.50;;;;;;;3.07;43.62;96566.13;5046371;28;20521;-71
2022/03/12 00:21:48;;;;;;;8.80;4.97;;;;;;;3.06;42.97;96572.41;5047020;28;20037;-71
2022/03/12 00:24:15;;;;;;;10.07;5.38;;;;;;;3.03;43.96;96570.16;5046804;28;20029;-73
2022/03/12 00:26:43;;;;;;;8.93;3.35;;;;;;;3.03;43.29;96570.16;5048194;28;20129;-71
2022/03/12 00:29:13;;;;;;;8.13;4.20;;;;;;;3.02;43.33;96571.16;5045467;28;20037;-72
2022/03/12 00:31:42;;;;;;;7.77;3.77;;;;;;;3.02;43.20;96568.53;5048504;28;20049;-73
2022/03/12 00:34:09;;;;;;;14.38;5.22;;;;;;;2.94;43.66;96560.78;5048298;28;20149;-74
2022/03/12 00:36:34;;;;;;;7.82;3.88;;;;;;;2.92;43.34;96559.34;5048007;28;20624;-74
2022/03/12 00:39:00;;;;;;;6.22;3.55;;;;;;;2.89;43.44;96560.56;5047817;28;20036;-71
2022/03/12 00:41:29;;;;;;;7.43;4.57;;;;;;;2.89;43.07;96559.75;5045726;28;20047;-72
2022/03/12 00:43:54;;;;;;;4.97;3.00;;;;;;;2.88;43.29;96558.09;5046886;28;20479;-72
2022/03/12 00:46:20;;;;;;;9.23;4.57;;;;;;;2.88;43.13;96547.53;5045193;28;20094;-71
2022/03/12 00:48:46;;;;;;;7.05;3.80;;;;;;;2.88;43.28;96552.81;5047635;28;20025;-71
2022/03/12 00:51:11;;;;;;;8.32;3.45;;;;;;;2.84;43.18;96539.19;5046263;28;20116;-73
2022/03/12 00:53:39;;;;;;;5.75;3.65;;;;;;;2.80;43.35;96553.81;5046826;28;20090;-72
2022/03/12 00:56:06;;;;;;;8.90;4.28;;;;;;;2.77;43.32;96546.28;5046081;28;20120;-73
2022/03/12 00:58:32;;;;;;;7.80;4.15;;;;;;;2.79;43.12;96554.81;5046988;28;20045;-75
2022/03/12 01:00:58;;;;;;;5.72;3.45;;;;;;;2.78;43.57;96550.53;5045528;28;20487;-71
2022/03/12 01:03:23;;;;;;;7.30;3.72;;;;;;;2.77;42.85;96556.84;5045210;28;20033;-71
2022/03/12 01:05:50;;;;;;;6.35;3.30;;;;;;;2.75;43.32;96549.13;5046110;28;20049;-72
2022/03/12 01:08:20;;;;;;;8.57;4.32;;;;;;;2.68;43.58;96558.84;5046355;28;20121;-71
2022/03/12 01:10:46;;;;;;;8.45;4.65;;;;;;;2.67;43.39;96557.22;5045764;28;20052;-76
2022/03/12 01:13:12;;;;;;;4.57;3.00;;;;;;;2.66;43.50;96562.72;5047648;28;20044;-72
2022/03/12 01:15:39;;;;;;;8.52;3.78;;;;;;;2.59;43.83;96560.03;5045776;28;20049;-72
2022/03/12 01:18:11;;;;;;;9.45;4.15;;;;;;;2.66;43.29;96562.72;5045103;28;20068;-70
2022/03/12 01:20:36;;;;;;;6.50;3.60;;;;;;;2.66;43.41;96562.72;5048005;28;20666;-72
2022/03/12 01:23:02;;;;;;;13.77;4.30;;;;;;;2.65;43.25;96561.06;5048690;28;20100;-71
2022/03/12 01:25:28;;;;;;;6.32;3.53;;;;;;;2.59;43.82;96559.22;5049302;28;20040;-71
2022/03/12 01:27:54;;;;;;;6.80;3.83;;;;;;;2.59;43.62;96557.38;5045885;28;20029;-73
2022/03/12 01:30:29;;;;;;;8.50;5.03;;;;;;;2.58;43.45;96549.66;5044509;28;20033;-74
2022/03/12 01:32:56;;;;;;;7.45;4.07;;;;;;;2.58;43.16;96557.59;5047308;28;20072;-72
2022/03/12 01:35:21;;;;;;;7.28;3.40;;;;;;;2.58;43.28;96549.66;5046532;28;20040;-71
2022/03/12 01:37:47;;;;;;;6.78;3.50;;;;;;;2.56;43.58;96546.38;5046701;28;20371;-71
2022/03/12 01:40:13;;;;;;;7.57;4.00;;;;;;;2.55;43.39;96553.50;5042106;28;20663;-71
2022/03/12 01:42:40;;;;;;;7.00;3.63;;;;;;;2.50;43.37;96556.72;5047677;28;20384;-71
2022/03/12 01:45:09;;;;;;;6.35;3.13;;;;;;;2.51;43.07;96558.34;5045958;28;20136;-71
2022/03/12 01:47:35;;;;;;;6.32;3.65;;;;;;;2.44;43.21;96557.50;5045364;28;20384;-71
2022/03/12 01:50:01;;;;;;;7.65;3.80;;;;;;;2.46;43.49;96570.50;5045404;28;20049;-74
2022/03/12 01:52:30;;;;;;;8.95;4.10;;;;;;;2.46;43.33;96573.16;5045105;28;20040;-75
2022/03/12 01:54:56;;;;;;;5.68;2.90;;;;;;;2.43;44.02;96571.72;5045704;28;20040;-72
2022/03/12 01:57:22;;;;;;;9.10;4.10;;;;;;;2.41;43.98;96567.63;5048488;28;20032;-75
2022/03/12 01:59:48;;;;;;;6.75;3.30;;;;;;;2.38;43.47;96568.03;5047415;28;20487;-71
2022/03/12 02:02:15;;;;;;;6.03;3.83;;;;;;;2.36;44.03;96567.41;5044732;28;20155;-74
2022/03/12 02:04:47;;;;;;;7.53;3.35;;;;;;;2.36;43.82;96565.59;5047558;28;20058;-70
2022/03/12 02:07:14;;;;;;;9.00;4.35;;;;;;;2.32;44.21;96564.31;5045760;28;20037;-70
2022/03/12 02:09:39;;;;;;;6.75;3.65;;;;;;;2.33;44.35;96571.25;5043552;28;20071;-73
2022/03/12 02:12:05;;;;;;;11.63;4.15;;;;;;;2.32;43.69;96568.81;5046508;28;20129;-73
2022/03/12 02:14:31;;;;;;;6.40;3.08;;;;;;;2.34;44.42;96578.19;5046892;28;20059;-72
2022/03/12 02:17:00;;;;;;;5.95;3.58;;;;;;;2.34;43.58;96577.38;5047194;28;20036;-71
2022/03/12 02:19:28;;;;;;;20.33;3.65;;;;;;;2.31;43.95;96572.44;5045342;28;20062;-73
2022/03/12 02:22:08;;;;;;;9.07;3.85;;;;;;;2.32;44.43;96571.44;5045090;28;20194;-73
2022/03/12 02:24:35;;;;;;;5.88;3.22;;;;;;;2.28;43.70;96573.66;5047162;28;20372;-71
2022/03/12 02:27:04;;;;;;;6.30;3.28;;;;;;;2.28;43.97;96573.66;5045331;28;20068;-71
2022/03/12 02:29:30;;;;;;;7.95;3.85;;;;;;;2.29;44.24;96572.66;5043531;28;20065;-73
2022/03/12 02:31:59;;;;;;;8.63;2.97;;;;;;;2.26;44.38;96569.56;5044736;28;20162;-72
2022/03/12 02:34:31;;;;;;;8.30;3.17;;;;;;;2.27;44.18;96572.03;5048121;28;20048;-71
2022/03/12 02:36:57;;;;;;;5.93;3.85;;;;;;;2.26;44.18;96574.84;5043944;28;20060;-74
2022/03/12 02:39:25;;;;;;;12.65;3.92;;;;;;;2.28;43.75;96583.41;5046193;28;20127;-71
2022/03/12 02:41:51;;;;;;;9.15;4.18;;;;;;;2.23;44.49;96583.97;5049050;28;20033;-71
2022/03/12 02:44:21;;;;;;;8.80;3.92;;;;;;;2.26;43.64;96586.25;5051158;28;20043;-71
2022/03/12 02:47:15;;;;;;;7.70;3.38;;;;;;;2.23;44.31;96579.50;5047732;28;20033;-72
2022/03/12 02:49:49;;;;;;;8.32;4.05;;;;;;;2.24;44.33;96583.78;5048983;28;20068;-72
2022/03/12 02:52:16;;;;;;;6.20;3.03;;;;;;;2.21;44.34;96591.28;5049523;28;20427;-71
2022/03/12 02:54:43;;;;;;;7.35;3.88;;;;;;;2.20;44.71;96587.84;5049086;28;20086;-71
2022/03/12 02:57:09;;;;;;;6.70;3.58;;;;;;;2.17;45.02;96592.66;5047956;28;20479;-71
2022/03/12 02:59:35;;;;;;;9.13;4.15;;;;;;;2.25;44.78;96605.72;5049139;28;20123;-70
2022/03/12 03:02:02;;;;;;;9.02;4.60;;;;;;;2.27;44.71;96611.66;5047685;28;20184;-71
2022/03/12 03:04:29;;;;;;;8.75;4.53;;;;;;;2.26;45.05;96610.03;5050218;28;20048;-72
2022/03/12 03:06:56;;;;;;;7.47;3.92;;;;;;;2.21;44.62;96628.25;5048237;28;20120;-75
2022/03/12 03:09:22;;;;;;;7.35;3.63;;;;;;;2.19;45.02;96619.72;5047804;28;20037;-71
2022/03/12 03:11:48;;;;;;;12.43;4.25;;;;;;;2.23;45.34;96615.66;5050968;28;20048;-71
2022/03/12 03:14:15;;;;;;;8.07;4.50;;;;;;;2.35;44.92;96618.59;5047681;28;20503;-71
2022/03/12 03:16:42;;;;;;;7.95;4.55;;;;;;;2.43;44.63;96619.28;5049936;28;20037;-74
2022/03/12 03:19:07;;;;;;;8.00;3.60;;;;;;;2.38;44.62;96626.94;5045948;28;20139;-74
2022/03/12 03:21:34;;;;;;;11.50;4.18;;;;;;;2.39;44.68;96615.38;5049037;28;20335;-74
2022/03/12 03:24:00;;;;;;;10.80;3.80;;;;;;;2.29;44.75;96628.09;5048848;28;20033;-71
2022/03/12 03:26:40;;;;;;;7.38;4.07;;;;;;;2.18;44.75;96631.28;5046959;28;20039;-72
2022/03/12 03:29:07;;;;;;;10.02;4.43;;;;;;;2.13;45.26;96628.41;5046908;28;20479;-74
2022/03/12 03:31:33;;;;;;;7.90;3.85;;;;;;;2.11;45.34;96630.41;5045837;28;20040;-72
2022/03/12 03:33:59;;;;;;;6.60;3.55;;;;;;;2.11;44.76;96635.69;5049406;28;20029;-74
2022/03/12 03:36:24;;;;;;;6.93;3.65;;;;;;;2.02;45.28;96640.28;5048005;28;20035;-70
2022/03/12 03:38:50;;;;;;;11.75;4.80;;;;;;;1.93;45.42;96631.66;5049334;28;20028;-75
2022/03/12 03:41:16;;;;;;;7.75;4.10;;;;;;;1.84;46.02;96632.00;5047831;28;20048;-70
2022/03/12 03:43:45;;;;;;;6.15;3.60;;;;;;;1.75;46.03;96643.69;5048816;28;20044;-70
2022/03/12 03:46:11;;;;;;;12.50;4.43;;;;;;;1.68;46.32;96640.97;5049061;28;20073;-72
2022/03/12 03:48:38;;;;;;;10.13;4.75;;;;;;;1.63;46.21;96644.19;5048797;28;20469;-73
2022/03/12 03:51:04;;;;;;;7.35;4.43;;;;;;;1.67;46.89;96656.00;5046641;28;20028;-71
2022/03/12 03:53:30;;;;;;;14.70;4.72;;;;;;;1.75;46.56;96652.41;5049925;28;20036;-71
2022/03/12 03:55:57;;;;;;;10.00;3.97;;;;;;;1.80;46.40;96660.59;5047993;28;20124;-71
2022/03/12 03:58:25;;;;;;;7.53;3.80;;;;;;;1.86;46.95;96651.91;5047377;28;20071;-71
2022/03/12 04:01:19;;;;;;;9.30;5.13;;;;;;;1.87;47.39;96658.84;5046623;28;20055;-71
2022/03/12 04:03:48;;;;;;;14.48;4.18;;;;;;;1.85;46.79;96670.56;5044338;28;20582;-73
2022/03/12 04:06:18;;;;;;;8.93;4.47;;;;;;;1.80;47.32;96659.78;5047905;28;20487;-74
2022/03/12 04:08:44;;;;;;;6.53;4.35;;;;;;;1.78;47.75;96659.13;5047884;28;20683;-73
2022/03/12 04:11:18;;;;;;;10.18;5.07;;;;;;;1.80;47.64;96657.97;5045817;28;20121;-71
2022/03/12 04:13:45;;;;;;;13.80;5.18;;;;;;;1.84;47.05;96658.38;5047336;28;20421;-72
2022/03/12 04:16:11;;;;;;;9.18;4.60;;;;;;;1.90;47.55;96661.09;5050038;28;20498;-72
2022/03/12 04:18:37;;;;;;;5.53;3.05;;;;;;;1.87;47.04;96653.56;5049145;28;20041;-71
2022/03/12 04:21:04;;;;;;;7.25;3.17;;;;;;;1.86;47.51;96666.91;5046198;28;20111;-72
2022/03/12 04:23:30;;;;;;;8.35;4.28;;;;;;;1.85;47.78;96660.81;5047417;28;20041;-75
2022/03/12 04:25:58;;;;;;;12.15;4.97;;;;;;;1.88;47.84;96664.94;5047168;28;20037;-71
2022/03/12 04:28:29;;;;;;;17.33;4.72;;;;;;;1.86;47.86;96673.00;5045832;28;20116;-71
2022/03/12 04:30:55;;;;;;;14.10;4.93;;;;;;;1.83;47.09;96676.03;5046735;28;20045;-71
2022/03/12 04:33:21;;;;;;;8.98;4.32;;;;;;;1.77;47.85;96671.50;5049181;28;20039;-71
2022/03/12 04:35:48;;;;;;;10.20;4.80;;;;;;;1.75;48.41;96675.34;5054889;28;20040;-73
2022/03/12 04:38:14;;;;;;;13.00;5.70;;;;;;;1.70;48.26;96680.38;5049952;28;20049;-73
2022/03/12 04:40:43;;;;;;;12.85;3.65;;;;;;;1.64;47.79;96682.75;5045092;28;20048;-71
2022/03/12 04:43:11;;;;;;;10.40;5.15;;;;;;;1.64;48.70;96692.50;5048357;28;20503;-71
2022/03/12 04:45:38;;;;;;;7.43;3.33;;;;;;;1.62;48.71;96694.47;5049519;28;20033;-71
2022/03/12 04:48:04;;;;;;;7.20;3.35;;;;;;;1.64;48.29;96684.59;5049237;28;20139;-74
2022/03/12 04:50:30;;;;;;;10.25;4.78;;;;;;;1.66;48.30;96696.56;5045374;28;20033;-74
2022/03/12 04:52:58;;;;;;;14.00;5.03;;;;;;;1.70;48.54;96686.44;5047143;28;20091;-73
2022/03/12 04:55:27;;;;;;;6.63;3.55;;;;;;;1.81;48.55;96693.06;5047403;28;20040;-71
2022/03/12 04:57:52;;;;;;;7.18;4.20;;;;;;;1.87;48.67;96693.16;5048910;28;20044;-74
2022/03/12 05:00:25;;;;;;;12.98;5.65;;;;;;;1.99;48.26;96696.09;5046349;28;20352;-71
2022/03/12 05:03:12;;;;;;;11.18;4.75;;;;;;;2.02;48.24;96700.16;5048042;28;20132;-72
2022/03/12 05:05:41;;;;;;;12.02;4.95;;;;;;;1.96;48.25;96701.75;5047632;28;20098;-73
2022/03/12 05:08:22;;;;;;;7.78;4.03;;;;;;;1.95;49.03;96706.22;5045290;28;20056;-73
2022/03/12 05:10:53;;;;;;;9.48;4.50;;;;;;;2.00;48.69;96703.00;5046612;28;20033;-73
2022/03/12 05:13:27;;;;;;;7.90;3.97;;;;;;;1.91;49.31;96712.06;5047199;28;20066;-71
2022/03/12 05:15:55;;;;;;;9.15;5.10;;;;;;;1.86;49.22;96712.59;5050678;28;20064;-71
2022/03/12 05:18:22;;;;;;;10.88;5.28;;;;;;;1.92;48.69;96714.50;5046373;28;20033;-70
2022/03/12 05:20:48;;;;;;;12.73;5.53;;;;;;;1.94;48.94;96714.31;5045715;28;20523;-71
2022/03/12 05:23:14;;;;;;;9.35;5.40;;;;;;;1.98;49.02;96717.41;5048533;28;20060;-71
2022/03/12 05:25:41;;;;;;;10.85;5.65;;;;;;;2.02;48.65;96716.00;5050572;28;20033;-74
2022/03/12 05:28:09;;;;;;;9.77;4.60;;;;;;;2.01;49.04;96724.94;5046780;28;20037;-74
2022/03/12 05:30:35;;;;;;;10.20;5.63;;;;;;;1.91;49.75;96722.59;5048608;28;20085;-71
2022/03/12 05:33:01;;;;;;;9.57;5.00;;;;;;;1.81;49.87;96724.75;5046722;28;20143;-71
2022/03/12 05:35:26;;;;;;;9.57;4.32;;;;;;;1.76;50.46;96727.94;5047581;28;20036;-71
2022/03/12 05:37:55;;;;;;;13.13;6.05;;;;;;;1.77;50.46;96726.91;5046752;28;20041;-71
2022/03/12 05:40:26;;;;;;;11.15;5.25;;;;;;;1.69;50.85;96711.22;5045864;28;20056;-73
2022/03/12 05:42:56;;;;;;;11.52;5.05;;;;;;;1.71;50.71;96722.38;5046843;28;20041;-72
2022/03/12 05:45:23;;;;;;;9.70;5.28;;;;;;;1.71;51.39;96714.47;5047547;28;20046;-71
2022/03/12 05:47:49;;;;;;;10.98;5.18;;;;;;;1.60;51.84;96728.16;5048661;28;20522;-72
2022/03/12 05:50:16;;;;;;;14.50;5.15;;;;;;;1.53;51.64;96722.81;5044925;28;20155;-74
2022/03/12 05:52:49;;;;;;;11.13;5.40;;;;;;;1.50;52.27;96730.28;5046272;28;20089;-72
2022/03/12 05:55:21;;;;;;;9.90;4.70;;;;;;;1.46;52.21;96723.72;5045964;28;20033;-70
2022/03/12 05:57:47;;;;;;;10.40;5.13;;;;;;;1.46;52.29;96723.72;5044506;28;20394;-74
2022/03/12 06:00:15;;;;;;;10.75;4.70;;;;;;;1.45;52.25;96722.91;5045608;28;20024;-71
2022/03/12 06:02:52;;;;;;;9.10;3.95;;;;;;;1.46;52.27;96721.09;5046817;28;20125;-72
2022/03/12 06:05:23;;;;;;;12.38;5.78;;;;;;;1.37;53.82;96723.81;5044514;28;20115;-70
2022/03/12 06:07:50;;;;;;;12.23;5.45;;;;;;;1.38;53.93;96727.28;5044655;28;20163;-73
2022/03/12 06:10:23;;;;;;;12.27;5.65;;;;;;;1.39;54.89;96726.28;5043439;28;20082;-75
2022/03/12 06:12:53;;;;;;;12.45;5.63;;;;;;;1.34;54.71;96728.66;5045126;28;20399;-71
2022/03/12 06:15:20;;;;;;;9.68;5.22;;;;;;;1.34;54.94;96724.22;5045443;28;20037;-74
2022/03/12 06:17:47;;;;;;;14.60;5.20;;;;;;;1.35;56.18;96725.03;5045590;28;20080;-72
2022/03/12 06:20:14;;;;;;;10.88;5.38;;;;;;;1.35;55.90;96719.75;5041261;28;20071;-71
2022/03/12 06:22:41;;;;;;;13.25;5.32;;;;;;;1.43;56.57;96722.28;5046556;28;20389;-71
2022/03/12 06:25:08;;;;;;;9.95;5.55;;;;;;;1.45;56.30;96714.19;5048406;28;20029;-73
2022/03/12 06:27:35;;;;;;;14.85;5.40;;;;;;;1.54;57.62;96728.88;5046398;28;20367;-74
2022/03/12 06:30:08;;;;;;;10.15;5.30;;;;;;;1.59;56.94;96737.06;5049532;28;20060;-73
2022/03/12 06:32:36;;;;;;;13.00;6.40;;;;;;;1.63;56.69;96730.41;5046032;28;20044;-71
2022/03/12 06:35:02;;;;;;;8.98;5.13;;;;;;;1.82;56.61;96732.47;5046429;28;20637;-70
2022/03/12 06:37:27;;;;;;;12.57;5.30;;;;;;;1.94;55.91;96717.75;5045684;28;20040;-72
2022/03/12 06:39:55;;;;;;;13.52;5.90;;;;;;;2.19;55.26;96727.97;5044633;28;20033;-73
2022/03/12 06:42:27;;;;;;;12.30;5.40;;;;;;;2.41;54.70;96712.91;5047809;28;20044;-71
2022/03/12 06:44:55;;;;;;;10.63;4.63;;;;;;;2.62;54.93;96734.00;5046650;28;20068;-71
2022/03/12 06:47:22;;;;;;;11.75;5.22;;;;;;;2.75;54.15;96735.94;5045403;28;20075;-71
2022/03/12 06:49:48;;;;;;;11.90;4.68;;;;;;;2.93;53.08;96724.88;5044166;28;20036;-74
2022/03/12 06:52:13;;;;;;;7.15;3.90;;;;;;;3.11;52.88;96719.06;5044362;28;20036;-71
2022/03/12 06:54:39;;;;;;;12.90;5.32;;;;;;;3.18;52.71;96725.22;5045154;28;20039;-71
2022/03/12 06:57:05;;;;;;;11.98;5.93;;;;;;;3.32;52.37;96726.94;5046029;28;20036;-70
2022/03/12 06:59:31;;;;;;;10.60;5.32;;;;;;;3.44;52.12;96722.72;5045413;28;20029;-71
2022/03/12 07:01:57;;;;;;;12.93;5.22;;;;;;;3.54;51.86;96706.47;5043526;28;20370;-70
2022/03/12 07:04:22;;;;;;;9.95;5.10;;;;;;;3.69;50.96;96716.91;5045466;28;20052;-73
2022/03/12 07:06:49;;;;;;;10.88;5.22;;;;;;;3.68;51.55;96713.44;5047443;28;20052;-71
2022/03/12 07:09:16;;;;;;;10.32;4.82;;;;;;;3.80;51.14;96724.25;5046095;28;20124;-73
2022/03/12 07:11:41;;;;;;;11.70;5.80;;;;;;;3.74;51.77;96725.88;5048637;28;20029;-73
2022/03/12 07:14:07;;;;;;;15.98;5.60;;;;;;;3.77;51.28;96722.03;5046151;28;20066;-72
2022/03/12 07:16:32;;;;;;;14.15;5.07;;;;;;;3.83;51.49;96718.59;5043651;28;20044;-71
2022/03/12 07:18:57;;;;;;;15.32;4.35;;;;;;;3.58;51.97;96713.81;5044153;28;20067;-72
2022/03/12 07:21:24;;;;;;;9.95;4.68;;;;;;;3.85;51.60;96719.19;5046612;28;20446;-73
2022/03/12 07:23:50;;;;;;;14.18;5.57;;;;;;;3.86;51.20;96726.13;5044870;28;20043;-75
2022/03/12 07:26:15;;;;;;;7.65;4.43;;;;;;;3.55;52.20;96727.44;5046898;28;20029;-72
2022/03/12 07:28:41;;;;;;;9.13;4.35;;;;;;;3.68;52.67;96734.63;5050315;28;20773;-72
2022/03/12 07:31:07;;;;;;;7.80;4.07;;;;;;;3.67;52.87;96733.00;5046170;28;20494;-72
2022/03/12 07:33:33;;;;;;;14.35;4.97;;;;;;;3.64;52.41;96728.88;5050751;28;20059;-73
2022/03/12 07:36:02;;;;;;;13.82;5.43;;;;;;;3.75;53.73;96724.06;5051656;28;20032;-74
2022/03/12 07:38:28;;;;;;;8.55;4.60;;;;;;;3.63;54.52;96731.75;5052906;28;20089;-75
2022/03/12 07:40:53;;;;;;;9.48;4.90;;;;;;;3.56;55.70;96739.66;5055700;28;20041;-71
2022/03/12 07:43:20;;;;;;;11.20;4.95;;;;;;;3.64;56.41;96731.53;5048450;28;20115;-71
2022/03/12 07:45:45;;;;;;;14.13;4.93;;;;;;;3.51;56.37;96744.75;5047044;28;20086;-71
2022/03/12 07:48:12;;;;;;;15.00;6.40;;;;;;;3.50;57.50;96745.75;5046884;28;20036;-74
2022/03/12 07:50:37;;;;;;;10.32;4.57;;;;;;;3.45;58.83;96758.75;5046931;28;20071;-71
2022/03/12 07:53:03;;;;;;;8.15;4.95;;;;;;;3.39;57.47;96756.88;5047611;28;20127;-75
2022/03/12 07:55:29;;;;;;;9.40;4.32;;;;;;;3.43;59.07;96752.84;5048130;28;20044;-71
2022/03/12 07:57:55;;;;;;;14.45;5.60;;;;;;;3.41;60.34;96757.50;5048822;28;20519;-74
2022/03/12 08:00:28;;;;;;;9.75;4.55;;;;;;;3.40;61.78;96758.50;5046983;28;20032;-71
2022/03/12 08:02:54;;;;;;;8.68;4.30;;;;;;;3.39;61.99;96759.53;5052703;28;20045;-71
2022/03/12 08:05:23;;;;;;;6.80;3.30;;;;;;;3.36;62.53;96765.22;5048855;28;20295;-71
2022/03/12 08:07:50;;;;;;;7.72;4.13;;;;;;;3.45;63.74;96760.56;5047617;28;20045;-71
2022/03/12 08:10:16;;;;;;;6.75;4.05;;;;;;;3.57;62.33;96759.00;5048295;28;20116;-72
2022/03/12 08:12:43;;;;;;;6.25;2.95;;;;;;;3.54;62.87;96760.22;5050380;28;20043;-73
2022/03/12 08:15:11;;;;;;;11.35;5.55;;;;;;;3.66;62.91;96763.13;5048256;28;20510;-72
2022/03/12 08:17:38;;;;;;;9.50;5.05;;;;;;;3.69;61.81;96761.91;5049464;28;20055;-74
2022/03/12 08:20:08;;;;;;;9.80;4.93;;;;;;;3.66;63.18;96765.78;5046441;28;20041;-73
2022/03/12 08:22:38;;;;;;;9.95;5.43;;;;;;;3.62;63.41;96753.94;5048068;28;20065;-72
2022/03/12 08:25:05;;;;;;;11.70;3.53;;;;;;;3.75;63.41;96766.41;5047675;28;20491;-71
2022/03/12 08:27:30;;;;;;;10.93;5.10;;;;;;;3.86;63.40;96763.19;5047987;28;20115;-71
2022/03/12 08:29:56;;;;;;;9.70;4.15;;;;;;;3.98;63.16;96768.72;5046863;28;20440;-71
2022/03/12 08:32:22;;;;;;;7.57;4.40;;;;;;;4.11;63.10;96766.91;5047646;28;20244;-71
2022/03/12 08:34:47;;;;;;;6.97;3.78;;;;;;;4.29;62.47;96765.53;5046778;28;20024;-71
2022/03/12 08:37:13;;;;;;;10.00;5.28;;;;;;;4.39;61.55;96766.78;5050098;28;20032;-71
2022/03/12 08:39:40;;;;;;;11.45;5.55;;;;;;;4.48;61.95;96775.34;5047883;28;20372;-71
2022/03/12 08:42:06;;;;;;;12.85;4.97;;;;;;;4.68;61.35;96783.31;5047453;28;20036;-73
2022/03/12 08:44:31;;;;;;;12.50;5.38;;;;;;;4.85;59.42;96778.44;5049708;28;20468;-72
2022/03/12 08:46:57;;;;;;;8.15;4.63;;;;;;;4.84;59.23;96790.06;5044836;28;20029;-73
2022/03/12 08:49:22;;;;;;;13.20;6.28;;;;;;;5.15;59.24;96789.44;5049002;28;20041;-74
2022/03/12 08:51:48;;;;;;;11.05;5.07;;;;;;;5.36;58.74;96791.00;5046598;28;20045;-73
2022/03/12 08:54:14;;;;;;;9.80;5.80;;;;;;;5.69;59.38;96783.81;5049281;28;20074;-72
2022/03/12 08:56:39;;;;;;;12.13;5.63;;;;;;;5.87;60.75;96794.53;5048501;28;20044;-74
2022/03/12 08:59:07;;;;;;;11.70;5.53;;;;;;;6.18;60.60;96795.66;5047923;28;20036;-72
2022/03/12 09:01:34;;;;;;;11.88;5.10;;;;;;;6.46;58.38;96794.47;5047669;28;20047;-71
2022/03/12 09:04:02;;;;;;;13.68;6.28;;;;;;;6.59;57.03;96791.75;5025292;28;20042;-75
2022/03/12 09:06:29;;;;;;;10.48;6.20;;;;;;;6.50;60.06;96793.03;5030861;28;20073;-74
2022/03/12 09:08:55;;;;;;;9.05;4.50;;;;;;;6.43;64.84;96782.44;5025912;28;20440;-74
2022/03/12 09:11:21;;;;;;;8.10;4.95;;;;;;;6.54;63.84;96786.28;5027648;28;20719;-72
2022/03/12 09:13:47;;;;;;;10.98;5.22;;;;;;;6.57;61.60;96799.94;5029227;28;20041;-72
2022/03/12 09:16:14;;;;;;;10.27;5.03;;;;;;;6.58;61.19;96792.78;5029447;28;20115;-72
2022/03/12 09:18:41;;;;;;;9.23;5.07;;;;;;;6.80;62.67;96794.06;5027563;28;20040;-75
2022/03/12 09:21:07;;;;;;;9.48;5.53;;;;;;;6.70;62.47;96785.75;5027240;28;20076;-71
2022/03/12 09:23:34;;;;;;;9.10;4.60;;;;;;;6.99;62.75;96803.72;5027141;28;20099;-75
2022/03/12 09:25:59;;;;;;;9.65;5.28;;;;;;;7.42;61.05;96794.94;5025197;28;20517;-73
2022/03/12 09:28:26;;;;;;;15.52;6.45;;;;;;;7.75;58.39;96791.94;5028912;28;20410;-73
2022/03/12 09:30:52;;;;;;;15.65;5.50;;;;;;;8.02;56.68;96802.28;5034448;28;20072;-72
2022/03/12 09:33:22;;;;;;;8.82;5.32;;;;;;;7.67;57.43;96804.72;5052286;28;20423;-72
2022/03/12 09:35:50;;;;;;;11.65;4.90;;;;;;;7.70;57.13;96804.28;5052992;28;20538;-71
2022/03/12 09:38:16;;;;;;;12.35;6.30;;;;;;;7.62;57.53;96800.06;5045986;28;20379;-72
2022/03/12 09:40:43;;;;;;;16.75;6.45;;;;;;;7.53;59.85;96807.53;5046204;28;20070;-71
2022/03/12 09:43:10;;;;;;;13.88;6.28;;;;;;;7.36;59.72;96818.97;4348430;28;10000667;-74
2022/03/12 09:45:56;;;;;;;14.30;5.32;;;;;;;7.19;59.65;96811.53;5040612;28;20052;-74
2022/03/12 09:48:22;;;;;;;9.05;4.50;;;;;;;7.33;57.87;96814.91;5042621;28;20174;-75
2022/03/12 09:50:48;;;;;;;7.13;4.05;;;;;;;7.19;59.33;96808.06;5046011;28;20028;-73
2022/03/12 09:53:13;;;;;;;11.98;5.78;;;;;;;7.54;57.19;96805.66;5047331;28;20123;-72
2022/03/12 09:55:39;;;;;;;10.77;5.00;;;;;;;7.72;55.37;96818.22;5047735;28;20201;-72
2022/03/12 09:58:05;;;;;;;12.20;6.00;;;;;;;8.03;54.44;96825.25;5047392;28;20047;-72
2022/03/12 10:00:30;;;;;;;14.05;6.75;;;;;;;8.22;52.71;96813.50;5043822;28;20030;-74
2022/03/12 10:02:56;;;;;;;15.30;6.47;;;;;;;8.67;51.06;96807.81;5045832;28;20049;-74
2022/03/12 10:05:22;;;;;;;9.70;4.82;;;;;;;8.65;51.60;96820.56;5043871;28;20087;-71
2022/03/12 10:07:47;;;;;;;9.32;5.28;;;;;;;8.68;51.99;96824.63;5047138;28;20040;-71
2022/03/12 10:10:18;;;;;;;9.63;5.72;;;;;;;8.96;51.33;96810.66;5022373;28;20045;-73
2022/03/12 10:12:45;;;;;;;13.10;4.93;;;;;;;9.40;50.05;96814.63;5026444;28;20037;-75
2022/03/12 10:15:12;;;;;;;14.98;6.35;;;;;;;9.62;51.26;96815.69;5025886;28;20588;-75
2022/03/12 10:17:38;;;;;;;13.60;6.43;;;;;;;9.94;50.11;96817.97;5025774;28;20373;-75
2022/03/12 10:20:06;;;;;;;17.92;8.05;;;;;;;10.16;48.25;96818.16;5022421;28;20041;-72
2022/03/12 10:22:32;;;;;;;11.52;5.75;;;;;;;10.06;46.91;96816.09;5025832;28;20048;-75
2022/03/12 10:24:58;;;;;;;12.80;6.20;;;;;;;9.85;47.10;96814.03;5027543;28;20088;-72
2022/03/12 10:27:24;;;;;;;14.15;7.32;;;;;;;9.89;48.17;96807.19;5026189;28;20862;-72
2022/03/12 10:29:50;;;;;;;15.63;7.30;;;;;;;10.43;47.02;96803.22;5026100;28;20029;-72
2022/03/12 10:32:34;;;;;;;13.52;6.68;;;;;;;9.58;47.66;96801.19;5023959;28;20051;-73
2022/03/12 10:35:01;;;;;;;10.63;5.72;;;;;;;10.32;47.03;96807.53;5025981;28;20571;-75
2022/03/12 10:37:31;;;;;;;14.18;7.18;;;;;;;10.26;47.73;96800.47;5047285;28;20048;-75
2022/03/12 10:40:17;;;;;;;11.35;6.60;;;;;;;9.73;47.87;96804.19;5046339;28;20029;-75
2022/03/12 10:42:53;;;;;;;12.00;6.03;;;;;;;9.67;48.93;96802.44;5045947;28;20044;-73
2022/03/12 10:45:21;;;;;;;15.15;7.03;;;;;;;9.42;49.17;96807.22;5044870;28;20917;-72
2022/03/12 10:47:55;;;;;;;14.15;6.53;;;;;;;9.23;51.21;96805.69;5043235;28;20109;-70
2022/03/12 10:50:48;;;;;;;11.35;6.32;;;;;;;9.28;52.07;96803.16;5042124;28;20070;-71
2022/03/12 10:53:15;;;;;;;10.68;6.60;;;;;;;9.71;51.68;96800.09;5039244;28;20056;-72
2022/03/12 10:55:46;;;;;;;11.13;6.60;;;;;;;9.53;51.69;96806.41;5045245;28;20071;-73
2022/03/12 10:58:26;;;;;;;13.00;7.03;;;;;;;9.87;51.96;96798.56;5046366;28;20489;-73
2022/03/12 11:00:59;;;;;;;14.88;7.20;;;;;;;9.73;51.77;96809.53;5047922;28;20511;-73
2022/03/12 11:03:36;;;;;;;15.45;7.53;;;;;;;9.64;51.66;96802.09;5050560;28;20086;-71
2022/03/12 11:06:04;;;;;;;14.18;8.02;;;;;;;9.61;51.99;96795.34;5051713;28;20064;-75
2022/03/12 11:08:32;;;;;;;16.77;6.78;;;;;;;9.70;50.40;96799.28;5050321;28;20032;-71
2022/03/12 11:10:59;;;;;;;15.55;7.18;;;;;;;9.44;52.41;96805.13;5050466;28;20037;-72
2022/03/12 11:13:47;;;;;;;15.93;7.80;;;;;;;9.67;52.18;96807.78;5051251;28;20079;-75
2022/03/12 11:16:21;;;;;;;11.20;6.78;;;;;;;9.78;51.79;96811.47;5049706;28;20035;-73
2022/03/12 11:18:53;;;;;;;10.65;6.07;;;;;;;9.90;52.35;96808.81;5050849;28;20051;-72
2022/03/12 11:21:27;;;;;;;12.23;7.15;;;;;;;9.86;53.14;96813.78;5048699;28;20044;-71
2022/03/12 11:23:54;;;;;;;11.57;6.60;;;;;;;11.02;49.31;96802.91;5049481;28;20479;-72
2022/03/12 11:26:20;;;;;;;14.40;7.75;;;;;;;11.38;47.88;96796.25;5050388;28;20040;-72
2022/03/12 11:28:59;;;;;;;16.02;6.57;;;;;;;12.34;44.87;96796.75;5048272;28;20044;-72
2022/03/12 11:32:05;;;;;;;16.67;7.07;;;;;;;15.15;37.82;96791.16;5047550;28;20526;-74
2022/03/12 11:34:34;;;;;;;17.98;7.60;;;;;;;16.62;35.69;96774.59;5012807;28;20064;-72
2022/03/12 11:37:12;;;;;;;11.25;6.35;;;;;;;17.11;33.90;96776.47;5047481;28;20110;-75
2022/03/12 11:39:46;;;;;;;15.40;6.73;;;;;;;18.33;32.69;96766.34;5046214;28;20036;-72
2022/03/12 11:42:15;;;;;;;12.32;6.90;;;;;;;17.30;33.40;96775.78;5049959;28;20294;-73